sensor_id;sensor_type;location;lat;lon;timestamp;P1;durP1;ratioP1;P2;durP2;ratioP2
6551;SDS011;3309;48.708;9.290;2022-10-17T00:00:53;0.50;;;0.50;;
6551;SDS011;3309;48.708;9.290;2022-10-17T00:03:19;0.60;;;0.60;;
6551;SDS011;3309;48.708;9.290;2022-10-17T00:05:45;0.40;;;0.40;;
6551;SDS011;3309;48.708;9.290;2022-10-17T00:08:12;0.50;;;0.50;;
6551;SDS011;3309;48.708;9.290;2022-10-17T00:10:39;0.50;;;0.50;;
6551;SDS011;3309;48.708;9.290;2022-10-17T00:13:05;0.50;;;0.50;;
6551;SDS011;3309;48.708;9.290;2022-10-17T00:15:31;0.50;;;0.50;;
6551;SDS011;3309;48.708;9.290;2022-10-17T00:17:57;0.50;;;0.50;;
6551;SDS011;3309;48.708;9.290;2022-10-17T00:20:23;0.40;;;0.40;;
6551;SDS011;3309;48.708;9.290;2022-10-17T00:22:49;0.40;;;0.40;;
6551;SDS011;3309;48.708;9.290;2022-10-17T00:25:15;0.43;;;0.43;;
6551;SDS011;3309;48.708;9.290;2022-10-17T00:27:41;0.50;;;0.50;;
6551;SDS011;3309;48.708;9.290;2022-10-17T00:30:08;0.50;;;0.50;;
6551;SDS011;3309;48.708;9.290;2022-10-17T00:32:36;0.50;;;0.50;;
6551;SDS011;3309;48.708;9.290;2022-10-17T00:35:02;0.50;;;0.50;;
6551;SDS011;3309;48.708;9.290;2022-10-17T00:37:29;0.50;;;0.50;;
6551;SDS011;3309;48.708;9.290;2022-10-17T00:39:55;0.50;;;0.50;;
6551;SDS011;3309;48.708;9.290;2022-10-17T00:42:21;0.40;;;0.40;;
6551;SDS011;3309;48.708;9.290;2022-10-17T00:47:15;0.40;;;0.40;;
6551;SDS011;3309;48.708;9.290;2022-10-17T00:49:43;0.40;;;0.40;;
6551;SDS011;3309;48.708;9.290;2022-10-17T00:52:27;0.50;;;0.50;;
6551;SDS011;3309;48.708;9.290;2022-10-17T00:54:55;0.30;;;0.30;;
6551;SDS011;3309;48.708;9.290;2022-10-17T00:57:26;0.50;;;0.50;;
6551;SDS011;3309;48.708;9.290;2022-10-17T00:59:53;0.43;;;0.43;;
6551;SDS011;3309;48.708;9.290;2022-10-17T01:02:20;0.50;;;0.50;;
6551;SDS011;3309;48.708;9.290;2022-10-17T01:04:47;0.40;;;0.40;;
6551;SDS011;3309;48.708;9.290;2022-10-17T01:07:15;0.50;;;0.50;;
6551;SDS011;3309;48.708;9.290;2022-10-17T01:09:41;0.60;;;0.60;;
6551;SDS011;3309;48.708;9.290;2022-10-17T01:12:24;0.50;;;0.50;;
6551;SDS011;3309;48.708;9.290;2022-10-17T01:15:02;0.47;;;0.47;;
6551;SDS011;3309;48.708;9.290;2022-10-17T01:17:53;0.50;;;0.50;;
6551;SDS011;3309;48.708;9.290;2022-10-17T01:25:55;0.50;;;0.50;;
6551;SDS011;3309;48.708;9.290;2022-10-17T01:31:31;0.60;;;0.60;;
6551;SDS011;3309;48.708;9.290;2022-10-17T01:34:26;0.50;;;0.50;;
6551;SDS011;3309;48.708;9.290;2022-10-17T01:37:01;0.50;;;0.50;;
6551;SDS011;3309;48.708;9.290;2022-10-17T01:42:34;0.60;;;0.60;;
6551;SDS011;3309;48.708;9.290;2022-10-17T01:47:42;0.60;;;0.60;;
6551;SDS011;3309;48.708;9.290;2022-10-17T01:50:15;0.40;;;0.40;;
6551;SDS011;3309;48.708;9.290;2022-10-17T01:52:47;0.50;;;0.50;;
6551;SDS011;3309;48.708;9.290;2022-10-17T01:55:17;0.50;;;0.50;;
6551;SDS011;3309;48.708;9.290;2022-10-17T01:57:51;0.60;;;0.60;;
6551;SDS011;3309;48.708;9.290;2022-10-17T02:00:22;0.50;;;0.50;;
6551;SDS011;3309;48.708;9.290;2022-10-17T02:02:51;0.57;;;0.57;;
6551;SDS011;3309;48.708;9.290;2022-10-17T02:05:21;0.47;;;0.47;;
6551;SDS011;3309;48.708;9.290;2022-10-17T02:07:52;0.50;;;0.50;;
6551;SDS011;3309;48.708;9.290;2022-10-17T02:10:20;0.50;;;0.50;;
6551;SDS011;3309;48.708;9.290;2022-10-17T02:13:08;0.60;;;0.60;;
6551;SDS011;3309;48.708;9.290;2022-10-17T02:15:46;0.40;;;0.40;;
6551;SDS011;3309;48.708;9.290;2022-10-17T02:21:06;0.50;;;0.50;;
6551;SDS011;3309;48.708;9.290;2022-10-17T02:23:53;0.60;;;0.60;;
6551;SDS011;3309;48.708;9.290;2022-10-17T02:29:23;0.50;;;0.50;;
6551;SDS011;3309;48.708;9.290;2022-10-17T02:32:04;0.60;;;0.60;;
6551;SDS011;3309;48.708;9.290;2022-10-17T02:34:35;0.50;;;0.50;;
6551;SDS011;3309;48.708;9.290;2022-10-17T02:37:06;0.50;;;0.50;;
6551;SDS011;3309;48.708;9.290;2022-10-17T02:39:33;0.60;;;0.60;;
6551;SDS011;3309;48.708;9.290;2022-10-17T02:42:02;0.40;;;0.40;;
6551;SDS011;3309;48.708;9.290;2022-10-17T02:44:33;0.60;;;0.60;;
6551;SDS011;3309;48.708;9.290;2022-10-17T02:47:08;0.60;;;0.60;;
6551;SDS011;3309;48.708;9.290;2022-10-17T02:49:46;0.50;;;0.50;;
6551;SDS011;3309;48.708;9.290;2022-10-17T02:55:05;0.50;;;0.50;;
6551;SDS011;3309;48.708;9.290;2022-10-17T02:57:50;0.50;;;0.50;;
6551;SDS011;3309;48.708;9.290;2022-10-17T03:00:22;0.50;;;0.50;;
6551;SDS011;3309;48.708;9.290;2022-10-17T03:02:51;0.57;;;0.57;;
6551;SDS011;3309;48.708;9.290;2022-10-17T03:05:21;0.57;;;0.57;;
6551;SDS011;3309;48.708;9.290;2022-10-17T03:07:49;0.50;;;0.50;;
6551;SDS011;3309;48.708;9.290;2022-10-17T03:10:15;0.60;;;0.60;;
6551;SDS011;3309;48.708;9.290;2022-10-17T03:12:41;0.60;;;0.60;;
6551;SDS011;3309;48.708;9.290;2022-10-17T03:15:07;0.53;;;0.53;;
6551;SDS011;3309;48.708;9.290;2022-10-17T03:17:33;0.60;;;0.60;;
6551;SDS011;3309;48.708;9.290;2022-10-17T03:19:58;0.53;;;0.53;;
6551;SDS011;3309;48.708;9.290;2022-10-17T03:22:24;0.40;;;0.40;;
6551;SDS011;3309;48.708;9.290;2022-10-17T03:24:49;0.40;;;0.40;;
6551;SDS011;3309;48.708;9.290;2022-10-17T03:27:15;0.50;;;0.50;;
6551;SDS011;3309;48.708;9.290;2022-10-17T03:29:40;0.60;;;0.60;;
6551;SDS011;3309;48.708;9.290;2022-10-17T03:32:06;0.60;;;0.60;;
6551;SDS011;3309;48.708;9.290;2022-10-17T03:34:32;0.50;;;0.50;;
6551;SDS011;3309;48.708;9.290;2022-10-17T03:36:57;0.50;;;0.50;;
6551;SDS011;3309;48.708;9.290;2022-10-17T03:39:23;0.50;;;0.50;;
6551;SDS011;3309;48.708;9.290;2022-10-17T03:41:49;0.60;;;0.60;;
6551;SDS011;3309;48.708;9.290;2022-10-17T03:44:14;0.50;;;0.50;;
6551;SDS011;3309;48.708;9.290;2022-10-17T03:46:40;0.50;;;0.50;;
6551;SDS011;3309;48.708;9.290;2022-10-17T03:49:05;0.50;;;0.50;;
6551;SDS011;3309;48.708;9.290;2022-10-17T03:51:32;0.50;;;0.50;;
6551;SDS011;3309;48.708;9.290;2022-10-17T03:53:59;0.50;;;0.50;;
6551;SDS011;3309;48.708;9.290;2022-10-17T03:56:24;0.60;;;0.60;;
6551;SDS011;3309;48.708;9.290;2022-10-17T03:58:50;0.50;;;0.50;;
6551;SDS011;3309;48.708;9.290;2022-10-17T04:01:16;0.60;;;0.60;;
6551;SDS011;3309;48.708;9.290;2022-10-17T04:03:43;0.60;;;0.60;;
6551;SDS011;3309;48.708;9.290;2022-10-17T04:06:12;0.67;;;0.67;;
6551;SDS011;3309;48.708;9.290;2022-10-17T04:08:38;0.60;;;0.60;;
6551;SDS011;3309;48.708;9.290;2022-10-17T04:11:04;0.60;;;0.60;;
6551;SDS011;3309;48.708;9.290;2022-10-17T04:13:32;0.70;;;0.70;;
6551;SDS011;3309;48.708;9.290;2022-10-17T04:15:58;0.80;;;0.80;;
6551;SDS011;3309;48.708;9.290;2022-10-17T04:18:30;0.70;;;0.70;;
6551;SDS011;3309;48.708;9.290;2022-10-17T04:20:55;0.70;;;0.70;;
6551;SDS011;3309;48.708;9.290;2022-10-17T04:23:21;0.67;;;0.67;;
6551;SDS011;3309;48.708;9.290;2022-10-17T04:25:47;0.60;;;0.60;;
6551;SDS011;3309;48.708;9.290;2022-10-17T04:28:13;0.70;;;0.70;;
6551;SDS011;3309;48.708;9.290;2022-10-17T04:30:38;0.50;;;0.50;;
6551;SDS011;3309;48.708;9.290;2022-10-17T04:33:04;0.60;;;0.60;;
6551;SDS011;3309;48.708;9.290;2022-10-17T04:35:30;0.60;;;0.60;;
6551;SDS011;3309;48.708;9.290;2022-10-17T04:37:56;0.67;;;0.67;;
6551;SDS011;3309;48.708;9.290;2022-10-17T04:40:21;0.80;;;0.80;;
6551;SDS011;3309;48.708;9.290;2022-10-17T04:42:47;0.60;;;0.60;;
6551;SDS011;3309;48.708;9.290;2022-10-17T04:45:12;0.60;;;0.60;;
6551;SDS011;3309;48.708;9.290;2022-10-17T04:47:38;0.60;;;0.60;;
6551;SDS011;3309;48.708;9.290;2022-10-17T04:50:03;0.60;;;0.60;;
6551;SDS011;3309;48.708;9.290;2022-10-17T04:52:30;0.60;;;0.60;;
6551;SDS011;3309;48.708;9.290;2022-10-17T04:54:55;0.70;;;0.70;;
6551;SDS011;3309;48.708;9.290;2022-10-17T04:57:21;0.60;;;0.60;;
6551;SDS011;3309;48.708;9.290;2022-10-17T04:59:47;0.60;;;0.60;;
6551;SDS011;3309;48.708;9.290;2022-10-17T05:02:13;0.50;;;0.50;;
6551;SDS011;3309;48.708;9.290;2022-10-17T05:04:38;0.70;;;0.70;;
6551;SDS011;3309;48.708;9.290;2022-10-17T05:07:04;0.60;;;0.60;;
6551;SDS011;3309;48.708;9.290;2022-10-17T05:09:29;0.50;;;0.50;;
6551;SDS011;3309;48.708;9.290;2022-10-17T05:11:55;0.60;;;0.60;;
6551;SDS011;3309;48.708;9.290;2022-10-17T05:14:21;0.70;;;0.70;;
6551;SDS011;3309;48.708;9.290;2022-10-17T05:16:46;0.70;;;0.70;;
6551;SDS011;3309;48.708;9.290;2022-10-17T05:19:12;0.70;;;0.70;;
6551;SDS011;3309;48.708;9.290;2022-10-17T05:21:37;0.60;;;0.60;;
6551;SDS011;3309;48.708;9.290;2022-10-17T05:24:04;0.60;;;0.60;;
6551;SDS011;3309;48.708;9.290;2022-10-17T05:26:30;0.57;;;0.57;;
6551;SDS011;3309;48.708;9.290;2022-10-17T05:28:56;0.70;;;0.70;;
6551;SDS011;3309;48.708;9.290;2022-10-17T05:31:24;0.60;;;0.60;;
6551;SDS011;3309;48.708;9.290;2022-10-17T05:33:49;0.67;;;0.67;;
6551;SDS011;3309;48.708;9.290;2022-10-17T05:36:15;0.60;;;0.60;;
6551;SDS011;3309;48.708;9.290;2022-10-17T05:38:40;0.53;;;0.53;;
6551;SDS011;3309;48.708;9.290;2022-10-17T05:41:06;0.70;;;0.70;;
6551;SDS011;3309;48.708;9.290;2022-10-17T05:43:32;0.70;;;0.70;;
6551;SDS011;3309;48.708;9.290;2022-10-17T05:46:01;0.70;;;0.70;;
6551;SDS011;3309;48.708;9.290;2022-10-17T05:48:30;0.50;;;0.50;;
6551;SDS011;3309;48.708;9.290;2022-10-17T05:50:56;0.70;;;0.70;;
6551;SDS011;3309;48.708;9.290;2022-10-17T05:53:25;0.60;;;0.60;;
6551;SDS011;3309;48.708;9.290;2022-10-17T05:55:54;0.57;;;0.57;;
6551;SDS011;3309;48.708;9.290;2022-10-17T05:58:21;0.67;;;0.67;;
6551;SDS011;3309;48.708;9.290;2022-10-17T06:00:46;0.67;;;0.67;;
6551;SDS011;3309;48.708;9.290;2022-10-17T06:03:12;0.60;;;0.60;;
6551;SDS011;3309;48.708;9.290;2022-10-17T06:05:37;0.70;;;0.70;;
6551;SDS011;3309;48.708;9.290;2022-10-17T06:08:03;0.70;;;0.70;;
6551;SDS011;3309;48.708;9.290;2022-10-17T06:10:28;0.60;;;0.60;;
6551;SDS011;3309;48.708;9.290;2022-10-17T06:12:54;0.57;;;0.57;;
6551;SDS011;3309;48.708;9.290;2022-10-17T06:15:20;0.50;;;0.50;;
6551;SDS011;3309;48.708;9.290;2022-10-17T06:17:46;0.70;;;0.70;;
6551;SDS011;3309;48.708;9.290;2022-10-17T06:20:11;0.60;;;0.60;;
6551;SDS011;3309;48.708;9.290;2022-10-17T06:22:37;0.60;;;0.60;;
6551;SDS011;3309;48.708;9.290;2022-10-17T06:25:02;0.60;;;0.60;;
6551;SDS011;3309;48.708;9.290;2022-10-17T06:27:28;0.57;;;0.57;;
6551;SDS011;3309;48.708;9.290;2022-10-17T06:29:54;0.50;;;0.50;;
6551;SDS011;3309;48.708;9.290;2022-10-17T06:32:19;0.50;;;0.50;;
6551;SDS011;3309;48.708;9.290;2022-10-17T06:34:45;0.50;;;0.50;;
6551;SDS011;3309;48.708;9.290;2022-10-17T06:37:10;0.50;;;0.50;;
6551;SDS011;3309;48.708;9.290;2022-10-17T06:39:36;0.40;;;0.40;;
6551;SDS011;3309;48.708;9.290;2022-10-17T06:42:02;0.43;;;0.43;;
6551;SDS011;3309;48.708;9.290;2022-10-17T06:44:28;0.40;;;0.40;;
6551;SDS011;3309;48.708;9.290;2022-10-17T06:46:55;0.50;;;0.50;;
6551;SDS011;3309;48.708;9.290;2022-10-17T06:49:24;0.40;;;0.40;;
6551;SDS011;3309;48.708;9.290;2022-10-17T06:51:50;0.40;;;0.40;;
6551;SDS011;3309;48.708;9.290;2022-10-17T06:54:16;0.40;;;0.40;;
6551;SDS011;3309;48.708;9.290;2022-10-17T06:56:41;0.30;;;0.30;;
6551;SDS011;3309;48.708;9.290;2022-10-17T06:59:08;0.30;;;0.30;;
6551;SDS011;3309;48.708;9.290;2022-10-17T07:01:34;0.40;;;0.40;;
6551;SDS011;3309;48.708;9.290;2022-10-17T07:04:00;0.40;;;0.40;;
6551;SDS011;3309;48.708;9.290;2022-10-17T07:06:26;0.40;;;0.40;;
6551;SDS011;3309;48.708;9.290;2022-10-17T07:08:51;0.40;;;0.40;;
6551;SDS011;3309;48.708;9.290;2022-10-17T07:11:18;0.40;;;0.40;;
6551;SDS011;3309;48.708;9.290;2022-10-17T07:13:45;0.40;;;0.40;;
6551;SDS011;3309;48.708;9.290;2022-10-17T07:16:11;0.50;;;0.50;;
6551;SDS011;3309;48.708;9.290;2022-10-17T07:18:38;0.37;;;0.37;;
6551;SDS011;3309;48.708;9.290;2022-10-17T07:21:04;0.40;;;0.40;;
6551;SDS011;3309;48.708;9.290;2022-10-17T07:23:32;0.40;;;0.40;;
6551;SDS011;3309;48.708;9.290;2022-10-17T07:26:01;0.50;;;0.50;;
6551;SDS011;3309;48.708;9.290;2022-10-17T07:28:33;0.60;;;0.60;;
6551;SDS011;3309;48.708;9.290;2022-10-17T07:31:06;0.70;;;0.70;;
6551;SDS011;3309;48.708;9.290;2022-10-17T07:33:37;0.60;;;0.60;;
6551;SDS011;3309;48.708;9.290;2022-10-17T07:36:03;0.60;;;0.60;;
6551;SDS011;3309;48.708;9.290;2022-10-17T07:38:29;0.60;;;0.60;;
6551;SDS011;3309;48.708;9.290;2022-10-17T07:40:55;0.60;;;0.60;;
6551;SDS011;3309;48.708;9.290;2022-10-17T07:43:23;0.60;;;0.60;;
6551;SDS011;3309;48.708;9.290;2022-10-17T07:45:49;0.60;;;0.60;;
6551;SDS011;3309;48.708;9.290;2022-10-17T07:48:15;0.57;;;0.57;;
6551;SDS011;3309;48.708;9.290;2022-10-17T07:50:41;0.60;;;0.60;;
6551;SDS011;3309;48.708;9.290;2022-10-17T07:53:07;0.70;;;0.70;;
6551;SDS011;3309;48.708;9.290;2022-10-17T07:55:32;0.60;;;0.60;;
6551;SDS011;3309;48.708;9.290;2022-10-17T07:57:58;0.70;;;0.70;;
6551;SDS011;3309;48.708;9.290;2022-10-17T08:00:24;0.57;;;0.57;;
6551;SDS011;3309;48.708;9.290;2022-10-17T08:02:50;0.37;;;0.37;;
6551;SDS011;3309;48.708;9.290;2022-10-17T08:05:16;0.50;;;0.50;;
6551;SDS011;3309;48.708;9.290;2022-10-17T08:07:42;0.47;;;0.47;;
6551;SDS011;3309;48.708;9.290;2022-10-17T08:10:07;0.40;;;0.40;;
6551;SDS011;3309;48.708;9.290;2022-10-17T08:12:35;0.40;;;0.40;;
6551;SDS011;3309;48.708;9.290;2022-10-17T08:15:00;0.40;;;0.40;;
6551;SDS011;3309;48.708;9.290;2022-10-17T08:17:26;0.40;;;0.40;;
6551;SDS011;3309;48.708;9.290;2022-10-17T08:19:51;0.50;;;0.50;;
6551;SDS011;3309;48.708;9.290;2022-10-17T08:22:17;0.47;;;0.47;;
6551;SDS011;3309;48.708;9.290;2022-10-17T08:24:43;0.40;;;0.40;;
6551;SDS011;3309;48.708;9.290;2022-10-17T08:27:10;0.40;;;0.40;;
6551;SDS011;3309;48.708;9.290;2022-10-17T08:29:37;0.50;;;0.50;;
6551;SDS011;3309;48.708;9.290;2022-10-17T08:32:04;0.40;;;0.40;;
6551;SDS011;3309;48.708;9.290;2022-10-17T08:34:30;0.43;;;0.43;;
6551;SDS011;3309;48.708;9.290;2022-10-17T08:36:56;0.20;;;0.20;;
6551;SDS011;3309;48.708;9.290;2022-10-17T08:39:21;0.30;;;0.30;;
6551;SDS011;3309;48.708;9.290;2022-10-17T08:44:22;0.30;;;0.30;;
6551;SDS011;3309;48.708;9.290;2022-10-17T08:47:10;0.40;;;0.40;;
6551;SDS011;3309;48.708;9.290;2022-10-17T08:49:57;0.37;;;0.37;;
6551;SDS011;3309;48.708;9.290;2022-10-17T08:52:34;0.30;;;0.30;;
6551;SDS011;3309;48.708;9.290;2022-10-17T08:55:26;0.40;;;0.40;;
6551;SDS011;3309;48.708;9.290;2022-10-17T08:58:01;0.37;;;0.37;;
6551;SDS011;3309;48.708;9.290;2022-10-17T09:00:27;0.47;;;0.47;;
6551;SDS011;3309;48.708;9.290;2022-10-17T09:03:04;0.40;;;0.40;;
6551;SDS011;3309;48.708;9.290;2022-10-17T09:08:25;0.27;;;0.27;;
6551;SDS011;3309;48.708;9.290;2022-10-17T09:11:14;0.40;;;0.40;;
6551;SDS011;3309;48.708;9.290;2022-10-17T09:13:59;0.20;;;0.20;;
6551;SDS011;3309;48.708;9.290;2022-10-17T09:16:49;0.20;;;0.20;;
6551;SDS011;3309;48.708;9.290;2022-10-17T09:19:33;0.33;;;0.33;;
6551;SDS011;3309;48.708;9.290;2022-10-17T09:22:02;0.53;;;0.53;;
6551;SDS011;3309;48.708;9.290;2022-10-17T09:24:47;0.20;;;0.20;;
6551;SDS011;3309;48.708;9.290;2022-10-17T09:29:53;0.30;;;0.30;;
6551;SDS011;3309;48.708;9.290;2022-10-17T09:32:26;0.30;;;0.30;;
6551;SDS011;3309;48.708;9.290;2022-10-17T09:34:52;0.50;;;0.50;;
6551;SDS011;3309;48.708;9.290;2022-10-17T09:37:18;0.40;;;0.40;;
6551;SDS011;3309;48.708;9.290;2022-10-17T09:39:48;0.43;;;0.43;;
6551;SDS011;3309;48.708;9.290;2022-10-17T09:42:15;0.30;;;0.30;;
6551;SDS011;3309;48.708;9.290;2022-10-17T09:45:00;0.30;;;0.30;;
6551;SDS011;3309;48.708;9.290;2022-10-17T09:47:43;0.40;;;0.40;;
6551;SDS011;3309;48.708;9.290;2022-10-17T09:50:17;0.23;;;0.23;;
6551;SDS011;3309;48.708;9.290;2022-10-17T09:52:53;0.40;;;0.40;;
6551;SDS011;3309;48.708;9.290;2022-10-17T09:57:57;0.30;;;0.30;;
6551;SDS011;3309;48.708;9.290;2022-10-17T10:00:29;0.30;;;0.30;;
6551;SDS011;3309;48.708;9.290;2022-10-17T10:06:18;0.30;;;0.30;;
6551;SDS011;3309;48.708;9.290;2022-10-17T10:11:16;0.43;;;0.43;;
6551;SDS011;3309;48.708;9.290;2022-10-17T10:13:42;0.60;;;0.60;;
6551;SDS011;3309;48.708;9.290;2022-10-17T10:16:13;0.60;;;0.60;;
6551;SDS011;3309;48.708;9.290;2022-10-17T10:18:39;0.60;;;0.60;;
6551;SDS011;3309;48.708;9.290;2022-10-17T10:23:30;0.57;;;0.57;;
6551;SDS011;3309;48.708;9.290;2022-10-17T10:25:57;0.60;;;0.60;;
6551;SDS011;3309;48.708;9.290;2022-10-17T10:28:27;0.50;;;0.50;;
6551;SDS011;3309;48.708;9.290;2022-10-17T10:30:56;0.60;;;0.60;;
6551;SDS011;3309;48.708;9.290;2022-10-17T10:33:25;0.50;;;0.50;;
6551;SDS011;3309;48.708;9.290;2022-10-17T10:35:57;0.60;;;0.60;;
6551;SDS011;3309;48.708;9.290;2022-10-17T10:38:28;0.30;;;0.30;;
6551;SDS011;3309;48.708;9.290;2022-10-17T10:40:57;0.40;;;0.40;;
6551;SDS011;3309;48.708;9.290;2022-10-17T10:43:33;0.73;;;0.73;;
6551;SDS011;3309;48.708;9.290;2022-10-17T10:46:04;0.57;;;0.57;;
6551;SDS011;3309;48.708;9.290;2022-10-17T10:48:55;0.60;;;0.60;;
6551;SDS011;3309;48.708;9.290;2022-10-17T10:51:26;0.73;;;0.73;;
6551;SDS011;3309;48.708;9.290;2022-10-17T10:54:19;0.47;;;0.47;;
6551;SDS011;3309;48.708;9.290;2022-10-17T10:56:49;0.50;;;0.50;;
6551;SDS011;3309;48.708;9.290;2022-10-17T10:59:28;0.70;;;0.70;;
6551;SDS011;3309;48.708;9.290;2022-10-17T11:02:12;0.50;;;0.50;;
6551;SDS011;3309;48.708;9.290;2022-10-17T11:05:07;0.60;;;0.60;;
6551;SDS011;3309;48.708;9.290;2022-10-17T11:10:36;0.53;;;0.53;;
6551;SDS011;3309;48.708;9.290;2022-10-17T11:13:52;0.50;;;0.50;;
6551;SDS011;3309;48.708;9.290;2022-10-17T11:19:06;0.40;;;0.40;;
6551;SDS011;3309;48.708;9.290;2022-10-17T11:21:50;0.60;;;0.60;;
6551;SDS011;3309;48.708;9.290;2022-10-17T11:24:41;0.52;;;0.52;;
6551;SDS011;3309;48.708;9.290;2022-10-17T11:27:12;0.45;;;0.45;;
6551;SDS011;3309;48.708;9.290;2022-10-17T11:29:38;0.40;;;0.40;;
6551;SDS011;3309;48.708;9.290;2022-10-17T11:32:12;0.40;;;0.40;;
6551;SDS011;3309;48.708;9.290;2022-10-17T11:34:45;0.13;;;0.13;;
6551;SDS011;3309;48.708;9.290;2022-10-17T11:37:23;0.40;;;0.40;;
6551;SDS011;3309;48.708;9.290;2022-10-17T11:40:01;0.40;;;0.40;;
6551;SDS011;3309;48.708;9.290;2022-10-17T11:45:04;0.40;;;0.40;;
6551;SDS011;3309;48.708;9.290;2022-10-17T11:47:45;0.50;;;0.50;;
6551;SDS011;3309;48.708;9.290;2022-10-17T11:55:26;0.20;;;0.20;;
6551;SDS011;3309;48.708;9.290;2022-10-17T12:03:29;0.20;;;0.20;;
6551;SDS011;3309;48.708;9.290;2022-10-17T12:06:06;0.10;;;0.10;;
6551;SDS011;3309;48.708;9.290;2022-10-17T12:17:08;0.30;;;0.30;;
6551;SDS011;3309;48.708;9.290;2022-10-17T12:22:50;0.40;;;0.40;;
6551;SDS011;3309;48.708;9.290;2022-10-17T12:25:21;0.30;;;0.30;;
6551;SDS011;3309;48.708;9.290;2022-10-17T12:30:31;0.30;;;0.30;;
6551;SDS011;3309;48.708;9.290;2022-10-17T12:33:02;0.52;;;0.52;;
6551;SDS011;3309;48.708;9.290;2022-10-17T12:35:48;0.37;;;0.37;;
6551;SDS011;3309;48.708;9.290;2022-10-17T12:48:20;0.40;;;0.40;;
6551;SDS011;3309;48.708;9.290;2022-10-17T12:56:08;0.40;;;0.40;;
6551;SDS011;3309;48.708;9.290;2022-10-17T12:58:34;0.50;;;0.50;;
6551;SDS011;3309;48.708;9.290;2022-10-17T13:01:00;0.60;;;0.60;;
6551;SDS011;3309;48.708;9.290;2022-10-17T13:03:30;0.50;;;0.50;;
6551;SDS011;3309;48.708;9.290;2022-10-17T13:05:59;0.63;;;0.63;;
6551;SDS011;3309;48.708;9.290;2022-10-17T13:08:28;0.60;;;0.60;;
6551;SDS011;3309;48.708;9.290;2022-10-17T13:10:57;0.50;;;0.50;;
6551;SDS011;3309;48.708;9.290;2022-10-17T13:13:27;0.50;;;0.50;;
6551;SDS011;3309;48.708;9.290;2022-10-17T13:16:00;0.70;;;0.70;;
6551;SDS011;3309;48.708;9.290;2022-10-17T13:18:26;0.57;;;0.57;;
6551;SDS011;3309;48.708;9.290;2022-10-17T13:20:54;0.60;;;0.60;;
6551;SDS011;3309;48.708;9.290;2022-10-17T13:23:29;0.63;;;0.63;;
6551;SDS011;3309;48.708;9.290;2022-10-17T13:28:34;0.70;;;0.70;;
6551;SDS011;3309;48.708;9.290;2022-10-17T13:30:59;0.60;;;0.60;;
6551;SDS011;3309;48.708;9.290;2022-10-17T13:33:30;0.60;;;0.60;;
6551;SDS011;3309;48.708;9.290;2022-10-17T13:36:03;0.50;;;0.50;;
6551;SDS011;3309;48.708;9.290;2022-10-17T13:38:32;0.53;;;0.53;;
6551;SDS011;3309;48.708;9.290;2022-10-17T13:40:59;0.50;;;0.50;;
6551;SDS011;3309;48.708;9.290;2022-10-17T13:43:26;0.70;;;0.70;;
6551;SDS011;3309;48.708;9.290;2022-10-17T13:45:54;0.60;;;0.60;;
6551;SDS011;3309;48.708;9.290;2022-10-17T13:48:29;0.40;;;0.40;;
6551;SDS011;3309;48.708;9.290;2022-10-17T13:50:57;0.50;;;0.50;;
6551;SDS011;3309;48.708;9.290;2022-10-17T13:58:20;0.60;;;0.60;;
6551;SDS011;3309;48.708;9.290;2022-10-17T14:00:47;0.50;;;0.50;;
6551;SDS011;3309;48.708;9.290;2022-10-17T14:03:16;0.60;;;0.60;;
6551;SDS011;3309;48.708;9.290;2022-10-17T14:05:59;0.60;;;0.60;;
6551;SDS011;3309;48.708;9.290;2022-10-17T14:08:28;0.60;;;0.60;;
6551;SDS011;3309;48.708;9.290;2022-10-17T14:10:56;0.50;;;0.50;;
6551;SDS011;3309;48.708;9.290;2022-10-17T14:13:23;0.50;;;0.50;;
6551;SDS011;3309;48.708;9.290;2022-10-17T14:15:52;0.50;;;0.50;;
6551;SDS011;3309;48.708;9.290;2022-10-17T14:18:20;0.50;;;0.50;;
6551;SDS011;3309;48.708;9.290;2022-10-17T14:20:49;0.50;;;0.50;;
6551;SDS011;3309;48.708;9.290;2022-10-17T14:23:26;0.40;;;0.40;;
6551;SDS011;3309;48.708;9.290;2022-10-17T14:26:09;0.50;;;0.50;;
6551;SDS011;3309;48.708;9.290;2022-10-17T14:28:37;0.50;;;0.50;;
6551;SDS011;3309;48.708;9.290;2022-10-17T14:31:11;0.50;;;0.50;;
6551;SDS011;3309;48.708;9.290;2022-10-17T14:33:45;0.40;;;0.40;;
6551;SDS011;3309;48.708;9.290;2022-10-17T14:36:12;0.50;;;0.50;;
6551;SDS011;3309;48.708;9.290;2022-10-17T14:38:43;0.50;;;0.50;;
6551;SDS011;3309;48.708;9.290;2022-10-17T14:41:14;0.37;;;0.37;;
6551;SDS011;3309;48.708;9.290;2022-10-17T14:43:51;0.50;;;0.50;;
6551;SDS011;3309;48.708;9.290;2022-10-17T14:46:19;0.40;;;0.40;;
6551;SDS011;3309;48.708;9.290;2022-10-17T14:48:44;0.30;;;0.30;;
6551;SDS011;3309;48.708;9.290;2022-10-17T14:51:15;0.40;;;0.40;;
6551;SDS011;3309;48.708;9.290;2022-10-17T14:53:42;0.57;;;0.57;;
6551;SDS011;3309;48.708;9.290;2022-10-17T14:56:23;0.40;;;0.40;;
6551;SDS011;3309;48.708;9.290;2022-10-17T14:58:58;0.40;;;0.40;;
6551;SDS011;3309;48.708;9.290;2022-10-17T15:01:26;0.43;;;0.43;;
6551;SDS011;3309;48.708;9.290;2022-10-17T15:03:52;0.40;;;0.40;;
6551;SDS011;3309;48.708;9.290;2022-10-17T15:06:18;0.50;;;0.50;;
6551;SDS011;3309;48.708;9.290;2022-10-17T15:08:46;0.30;;;0.30;;
6551;SDS011;3309;48.708;9.290;2022-10-17T15:11:12;0.40;;;0.40;;
6551;SDS011;3309;48.708;9.290;2022-10-17T15:13:37;0.30;;;0.30;;
6551;SDS011;3309;48.708;9.290;2022-10-17T15:16:12;0.30;;;0.30;;
6551;SDS011;3309;48.708;9.290;2022-10-17T15:18:42;0.40;;;0.40;;
6551;SDS011;3309;48.708;9.290;2022-10-17T15:21:15;0.40;;;0.40;;
6551;SDS011;3309;48.708;9.290;2022-10-17T15:23:42;0.30;;;0.30;;
6551;SDS011;3309;48.708;9.290;2022-10-17T15:26:12;0.37;;;0.37;;
6551;SDS011;3309;48.708;9.290;2022-10-17T15:28:39;0.30;;;0.30;;
6551;SDS011;3309;48.708;9.290;2022-10-17T15:31:04;0.50;;;0.50;;
6551;SDS011;3309;48.708;9.290;2022-10-17T15:33:30;0.30;;;0.30;;
6551;SDS011;3309;48.708;9.290;2022-10-17T15:35:55;0.40;;;0.40;;
6551;SDS011;3309;48.708;9.290;2022-10-17T15:38:21;0.40;;;0.40;;
6551;SDS011;3309;48.708;9.290;2022-10-17T15:40:46;0.40;;;0.40;;
6551;SDS011;3309;48.708;9.290;2022-10-17T15:43:14;0.40;;;0.40;;
6551;SDS011;3309;48.708;9.290;2022-10-17T15:45:40;0.30;;;0.30;;
6551;SDS011;3309;48.708;9.290;2022-10-17T15:48:06;0.30;;;0.30;;
6551;SDS011;3309;48.708;9.290;2022-10-17T15:50:38;0.40;;;0.40;;
6551;SDS011;3309;48.708;9.290;2022-10-17T15:53:04;0.30;;;0.30;;
6551;SDS011;3309;48.708;9.290;2022-10-17T15:55:32;0.20;;;0.20;;
6551;SDS011;3309;48.708;9.290;2022-10-17T15:57:59;0.30;;;0.30;;
6551;SDS011;3309;48.708;9.290;2022-10-17T16:00:24;0.30;;;0.30;;
6551;SDS011;3309;48.708;9.290;2022-10-17T16:02:50;0.30;;;0.30;;
6551;SDS011;3309;48.708;9.290;2022-10-17T16:05:19;0.50;;;0.50;;
6551;SDS011;3309;48.708;9.290;2022-10-17T16:07:47;0.30;;;0.30;;
6551;SDS011;3309;48.708;9.290;2022-10-17T16:10:14;0.30;;;0.30;;
6551;SDS011;3309;48.708;9.290;2022-10-17T16:12:40;0.37;;;0.37;;
6551;SDS011;3309;48.708;9.290;2022-10-17T16:15:08;0.30;;;0.30;;
6551;SDS011;3309;48.708;9.290;2022-10-17T16:17:44;0.37;;;0.37;;
6551;SDS011;3309;48.708;9.290;2022-10-17T16:20:10;0.40;;;0.40;;
6551;SDS011;3309;48.708;9.290;2022-10-17T16:22:36;0.40;;;0.40;;
6551;SDS011;3309;48.708;9.290;2022-10-17T16:25:06;0.40;;;0.40;;
6551;SDS011;3309;48.708;9.290;2022-10-17T16:27:43;0.70;;;0.70;;
6551;SDS011;3309;48.708;9.290;2022-10-17T16:30:10;0.60;;;0.60;;
6551;SDS011;3309;48.708;9.290;2022-10-17T16:32:36;0.70;;;0.70;;
6551;SDS011;3309;48.708;9.290;2022-10-17T16:35:02;0.60;;;0.60;;
6551;SDS011;3309;48.708;9.290;2022-10-17T16:37:29;0.67;;;0.67;;
6551;SDS011;3309;48.708;9.290;2022-10-17T16:39:54;0.70;;;0.70;;
6551;SDS011;3309;48.708;9.290;2022-10-17T16:42:20;0.60;;;0.60;;
6551;SDS011;3309;48.708;9.290;2022-10-17T16:44:49;0.67;;;0.67;;
6551;SDS011;3309;48.708;9.290;2022-10-17T16:47:15;0.70;;;0.70;;
6551;SDS011;3309;48.708;9.290;2022-10-17T16:49:42;0.70;;;0.70;;
6551;SDS011;3309;48.708;9.290;2022-10-17T16:52:08;0.60;;;0.60;;
6551;SDS011;3309;48.708;9.290;2022-10-17T16:54:33;0.30;;;0.30;;
6551;SDS011;3309;48.708;9.290;2022-10-17T16:56:59;0.30;;;0.30;;
6551;SDS011;3309;48.708;9.290;2022-10-17T16:59:26;0.40;;;0.40;;
6551;SDS011;3309;48.708;9.290;2022-10-17T17:01:52;0.47;;;0.47;;
6551;SDS011;3309;48.708;9.290;2022-10-17T17:04:18;0.40;;;0.40;;
6551;SDS011;3309;48.708;9.290;2022-10-17T17:06:44;0.40;;;0.40;;
6551;SDS011;3309;48.708;9.290;2022-10-17T17:09:10;0.40;;;0.40;;